Time;durP1;ratioP1;P1;durP2;ratioP2;P2;SDS_P1;SDS_P2;PMS_P1;PMS_P2;Temp;Humidity;BMP_temperature;BMP_pressure;BME280_temperature;BME280_humidity;BME280_pressure;Samples;Min_cycle;Max_cycle;Signal;HPM_P1;HPM_P2
2022/05/25 02:51:56;;;;;;;7.86;5.19;;;;;;;7.59;70.61;99855.41;378347;140;882432;-58
2022/05/25 02:52:58;;;;;;;9.25;5.14;;;;;;;7.73;69.99;99864.04;367083;142;859480;-59
2022/05/25 02:54:00;;;;;;;7.56;5.06;;;;;;;7.96;69.17;99870.95;369386;141;864753;-58
2022/05/25 02:55:02;;;;;;;9.75;5.19;;;;;;;8.19;68.51;99870.11;369126;141;864745;-59
2022/05/25 02:56:06;;;;;;;7.11;5.03;;;;;;;;;;370727;142;857202;-60
2022/05/25 02:57:07;;;;;;;10.24;5.47;;;;;;;;;;367699;141;858906;-58
2022/05/25 02:58:09;;;;;;;7.74;5.35;;;;;;;;;;368242;142;858151;-59
2022/05/25 02:59:10;;;;;;;10.00;5.45;;;;;;;;;;367877;141;858101;-60
2022/05/25 03:00:12;;;;;;;8.81;5.66;;;;;;;;;;369509;141;857236;-59
2022/05/25 03:01:14;;;;;;;9.61;5.39;;;;;;;;;;368204;142;865035;-59
2022/05/25 03:02:16;;;;;;;10.68;6.14;;;;;;;;;;352228;150;857219;-60
2022/05/25 03:03:17;;;;;;;7.16;5.04;;;;;;;;;;352583;149;857391;-58
2022/05/25 03:04:19;;;;;;;7.62;4.98;;;;;;;;;;364748;144;864773;-59
2022/05/25 03:05:21;;;;;;;9.24;6.06;;;;;;;;;;365133;145;864549;-58
2022/05/25 03:06:23;;;;;;;10.23;5.84;;;;;;;;;;365445;144;857540;-59
2022/05/25 03:07:25;;;;;;;10.18;5.68;;;;;;;;;;365470;146;857600;-58
2022/05/25 03:08:26;;;;;;;7.50;5.62;;;;;;;;;;364511;144;864952;-60
2022/05/25 03:09:28;;;;;;;10.03;5.72;;;;;;;;;;363916;144;857423;-59
2022/05/25 03:10:30;;;;;;;11.42;5.89;;;;;;;;;;365640;144;857273;-58
2022/05/25 03:11:31;;;;;;;8.95;5.80;;;;;;;;;;365354;144;856422;-59
2022/05/25 03:12:33;;;;;;;9.94;6.12;;;;;;;;;;365013;146;857237;-58
2022/05/25 03:13:35;;;;;;;8.79;6.02;;;;;;;;;;360703;144;857193;-58
2022/05/25 03:14:37;;;;;;;9.81;5.91;;;;;;;;;;364205;144;858844;-59
2022/05/25 03:15:39;;;;;;;7.39;5.46;;;;;;;;;;365302;144;864898;-60
2022/05/25 03:16:40;;;;;;;8.31;5.82;;;;;;;;;;366384;145;856129;-62
2022/05/25 03:17:42;;;;;;;9.24;6.16;;;;;;;;;;365180;145;863893;-59
2022/05/25 03:18:43;;;;;;;11.72;5.79;;;;;;;;;;364589;144;858890;-59
2022/05/25 03:19:51;;;;;;;9.95;5.96;;;;;;;;;;364211;145;857217;-62
2022/05/25 03:20:54;;;;;;;7.68;5.91;;;;;;;;;;366016;145;856224;-61
2022/05/25 03:21:55;;;;;;;9.82;5.75;;;;;;;;;;365082;145;856473;-60
2022/05/25 03:22:57;;;;;;;7.45;5.76;;;;;;;;;;363443;144;856299;-66
2022/05/25 03:23:58;;;;;;;10.21;5.74;;;;;;;;;;362666;146;856104;-64
2022/05/25 03:25:00;;;;;;;12.03;5.62;;;;;;;;;;363717;144;856075;-64
2022/05/25 03:26:02;;;;;;;7.68;5.43;;;;;;;;;;365371;145;856212;-60
2022/05/25 03:27:03;;;;;;;8.45;5.99;;;;;;;;;;365160;145;856185;-60
2022/05/25 03:28:05;;;;;;;10.44;5.79;;;;;;;;;;366047;144;856940;-64
2022/05/25 03:29:07;;;;;;;10.21;5.34;;;;;;;;;;365169;144;863928;-64
2022/05/25 03:30:11;;;;;;;9.34;5.92;;;;;;;;;;363844;144;856889;-66
2022/05/25 03:31:12;;;;;;;9.06;5.61;;;;;;;;;;365685;144;864823;-65
2022/05/25 03:32:14;;;;;;;7.72;5.77;;;;;;;;;;364882;145;856282;-66
2022/05/25 03:33:15;;;;;;;6.95;5.44;;;;;;;;;;365325;145;856143;-64
2022/05/25 03:34:17;;;;;;;9.25;5.57;;;;;;;;;;365614;145;856049;-63
2022/05/25 03:35:19;;;;;;;9.72;5.67;;;;;;;;;;365030;144;863568;-65
2022/05/25 03:36:21;;;;;;;9.21;5.37;;;;;;;;;;365117;144;856066;-67
2022/05/25 03:37:22;;;;;;;8.24;5.79;;;;;;;;;;365900;145;856185;-62
2022/05/25 03:38:24;;;;;;;8.61;5.57;;;;;;;;;;364280;146;856197;-65
2022/05/25 03:39:26;;;;;;;8.01;5.49;;;;;;;;;;366354;144;856744;-64
2022/05/25 03:40:27;;;;;;;9.20;5.66;;;;;;;;;;362285;144;865013;-63
2022/05/25 03:41:29;;;;;;;8.90;5.80;;;;;;;;;;365090;144;858179;-63
2022/05/25 03:42:31;;;;;;;9.14;5.44;;;;;;;;;;364390;145;857457;-60
2022/05/25 03:43:34;;;;;;;8.28;5.78;;;;;;;;;;358385;147;863651;-62
2022/05/25 03:44:35;;;;;;;8.58;5.49;;;;;;;;;;358688;147;857137;-63
2022/05/25 03:45:37;;;;;;;9.67;5.94;;;;;;;;;;364725;145;858791;-63
2022/05/25 03:46:38;;;;;;;13.47;6.59;;;;;;;;;;363281;144;865886;-64
2022/05/25 03:47:40;;;;;;;10.92;5.56;;;;;;;;;;365702;144;865594;-63
2022/05/25 03:48:41;;;;;;;9.26;6.01;;;;;;;;;;364847;144;856128;-63
2022/05/25 03:49:43;;;;;;;8.06;5.27;;;;;;;;;;364254;144;857693;-63
2022/05/25 03:50:46;;;;;;;7.57;5.22;;;;;;;;;;365561;144;857632;-65
2022/05/25 03:51:48;;;;;;;8.05;5.36;;;;;;;;;;364303;144;857161;-62
2022/05/25 03:52:50;;;;;;;8.86;5.32;;;;;;;;;;362391;145;864798;-61
2022/05/25 03:53:52;;;;;;;7.50;5.09;;;;;;;;;;362881;145;866738;-64
2022/05/25 03:54:53;;;;;;;11.17;6.17;;;;;;;;;;363057;145;864769;-62
2022/05/25 03:55:55;;;;;;;11.29;5.61;;;;;;;;;;363589;147;865506;-60
2022/05/25 03:56:57;;;;;;;9.10;5.38;;;;;;;;;;362824;145;857285;-65
2022/05/25 03:57:59;;;;;;;7.36;4.87;;;;;;;;;;362791;145;858217;-62
2022/05/25 03:59:01;;;;;;;9.87;5.58;;;;;;;;;;362070;145;864795;-65
2022/05/25 04:00:04;;;;;;;7.19;5.02;;;;;;;;;;363262;145;856392;-63
2022/05/25 04:01:05;;;;;;;8.23;5.31;;;;;;;;;;349566;150;858567;-62
2022/05/25 04:02:07;;;;;;;9.10;4.96;;;;;;;;;;355847;150;857569;-62
2022/05/25 04:03:11;;;;;;;8.69;5.49;;;;;;;;;;354811;148;857217;-63
2022/05/25 04:04:13;;;;;;;9.06;5.11;;;;;;;;;;342500;153;857811;-66
2022/05/25 04:05:15;;;;;;;7.60;5.26;;;;;;;;;;343305;153;865080;-62
2022/05/25 04:06:17;;;;;;;7.84;5.31;;;;;;;;;;346627;151;865788;-64
2022/05/25 04:07:18;;;;;;;7.21;4.99;;;;;;;;;;354715;149;864810;-65
2022/05/25 04:08:20;;;;;;;9.39;5.29;;;;;;;;;;350234;151;857297;-60
2022/05/25 04:09:22;;;;;;;8.02;5.22;;;;;;;;;;350721;151;864866;-61
2022/05/25 04:10:23;;;;;;;7.04;4.98;;;;;;;;;;352927;149;859023;-61
2022/05/25 04:11:25;;;;;;;7.87;4.92;;;;;;;;;;352879;150;857851;-62
2022/05/25 04:12:27;;;;;;;8.00;5.25;;;;;;;;;;352051;149;858025;-62
2022/05/25 04:13:29;;;;;;;7.75;5.01;;;;;;;;;;352997;149;857444;-63
2022/05/25 04:14:31;;;;;;;6.65;4.85;;;;;;;;;;353817;149;860148;-61
2022/05/25 04:15:32;;;;;;;9.35;5.42;;;;;;;;;;352969;149;860343;-62
2022/05/25 04:16:35;;;;;;;6.98;5.06;;;;;;;;;;353485;149;857469;-64
2022/05/25 04:17:36;;;;;;;6.93;4.52;;;;;;;;;;352826;149;864686;-66
2022/05/25 04:18:38;;;;;;;9.39;5.08;;;;;;;;;;353847;150;859219;-68
2022/05/25 04:19:40;;;;;;;8.07;5.17;;;;;;;;;;352855;149;856598;-58
2022/05/25 04:20:42;;;;;;;5.92;4.78;;;;;;;;;;353029;149;857264;-56
2022/05/25 04:21:44;;;;;;;7.95;5.09;;;;;;;;;;352587;149;857214;-58
2022/05/25 04:22:45;;;;;;;8.14;4.93;;;;;;;;;;347790;151;857897;-57
2022/05/25 04:23:47;;;;;;;6.74;4.62;;;;;;;;;;348709;152;857261;-57
2022/05/25 04:24:48;;;;;;;6.37;4.98;;;;;;;;;;354363;148;858834;-58
2022/05/25 04:25:50;;;;;;;6.99;4.88;;;;;;;;;;348556;152;859601;-63
2022/05/25 04:26:52;;;;;;;7.08;5.30;;;;;;;;;;349094;153;858284;-60
2022/05/25 04:27:54;;;;;;;9.55;4.99;;;;;;;;;;355962;149;864779;-64
2022/05/25 04:28:58;;;;;;;7.23;4.99;;;;;;;;;;350256;151;859757;-62
2022/05/25 04:30:00;;;;;;;8.51;5.16;;;;;;;;;;354430;148;857208;-61
2022/05/25 04:31:01;;;;;;;9.07;4.87;;;;;;;;;;355269;148;864781;-62
2022/05/25 04:32:04;;;;;;;8.64;5.41;;;;;;;;;;355034;148;866792;-63
2022/05/25 04:33:05;;;;;;;6.94;4.76;;;;;;;;;;349649;151;865031;-62
2022/05/25 04:34:09;;;;;;;7.74;4.85;;;;;;;;;;350268;151;857926;-61
2022/05/25 04:35:10;;;;;;;8.57;4.69;;;;;;;;;;348961;151;857553;-60
2022/05/25 04:36:12;;;;;;;7.09;4.57;;;;;;;;;;350027;151;857812;-62
2022/05/25 04:38:34;;;;;;;8.02;4.63;;;;;;;;;;348501;153;865125;-61
2022/05/25 04:39:36;;;;;;;7.47;4.45;;;;;;;;;;351630;149;863594;-62
2022/05/25 04:40:39;;;;;;;7.08;4.01;;;;;;;;;;352878;149;857765;-62
2022/05/25 04:41:41;;;;;;;8.77;4.33;;;;;;;;;;352182;149;857215;-59
2022/05/25 04:42:43;;;;;;;7.17;4.58;;;;;;;;;;350988;149;863526;-60
2022/05/25 04:43:45;;;;;;;6.21;4.06;;;;;;;;;;350306;151;856726;-60
2022/05/25 04:44:46;;;;;;;6.66;4.06;;;;;;;;;;355882;148;859445;-60
2022/05/25 04:45:48;;;;;;;6.10;3.84;;;;;;;;;;355835;148;865372;-58
2022/05/25 04:46:50;;;;;;;7.57;4.28;;;;;;;;;;356282;148;857646;-59
2022/05/25 04:47:52;;;;;;;7.71;3.81;;;;;;;;;;350821;150;859005;-60
2022/05/25 04:48:54;;;;;;;6.90;4.01;;;;;;;;;;353906;149;858859;-59
2022/05/25 04:49:56;;;;;;;7.36;3.95;;;;;;;;;;355302;149;857378;-63
2022/05/25 04:50:57;;;;;;;5.23;3.73;;;;;;;;;;355047;148;864912;-59
2022/05/25 04:51:59;;;;;;;6.68;3.98;;;;;;;;;;356131;148;864797;-60
2022/05/25 04:53:01;;;;;;;5.52;3.80;;;;;;;;;;356494;148;863620;-60
2022/05/25 04:54:03;;;;;;;4.61;3.39;;;;;;;;;;348644;152;859042;-58
2022/05/25 04:55:05;;;;;;;5.22;2.73;;;;;;;;;;356606;149;857380;-59
2022/05/25 04:57:28;;;;;;;4.83;2.97;;;;;;;;;;351640;150;863812;-64
2022/05/25 04:58:33;;;;;;;11.96;2.86;;;;;;;;;;356927;148;856623;-60
2022/05/25 04:59:34;;;;;;;7.19;3.31;;;;;;;;;;351768;149;863675;-65
2022/05/25 05:00:36;;;;;;;5.27;2.94;;;;;;;;;;350867;150;856765;-60
2022/05/25 05:01:39;;;;;;;5.11;3.27;;;;;;;;;;352922;149;857273;-65
2022/05/25 05:02:41;;;;;;;4.99;2.79;;;;;;;;;;352628;149;863568;-59
2022/05/25 05:03:42;;;;;;;6.56;2.88;;;;;;;;;;349272;151;863547;-59
2022/05/25 05:04:44;;;;;;;3.46;2.47;;;;;;;;;;350904;150;856329;-59
2022/05/25 05:05:49;;;;;;;6.21;3.07;;;;;;;;;;350784;150;856152;-59
2022/05/25 05:06:52;;;;;;;5.85;2.75;;;;;;;;;;337306;156;864169;-59
2022/05/25 05:07:54;;;;;;;5.17;2.89;;;;;;;;;;342945;153;858097;-58
2022/05/25 05:08:56;;;;;;;3.28;2.36;;;;;;;;;;356570;148;863684;-55
2022/05/25 05:09:57;;;;;;;5.12;2.72;;;;;;;;;;353801;149;856169;-58
2022/05/25 05:11:01;;;;;;;4.98;2.77;;;;;;;;;;344778;153;857191;-58
2022/05/25 05:12:03;;;;;;;5.84;2.47;;;;;;;;;;346639;151;858897;-58
2022/05/25 05:13:05;;;;;;;3.45;2.37;;;;;;;;;;349892;151;858874;-58
2022/05/25 05:14:06;;;;;;;4.29;2.39;;;;;;;;;;349751;151;858100;-58
2022/05/25 05:15:08;;;;;;;8.33;2.80;;;;;;;;;;358136;148;857265;-58
2022/05/25 05:16:13;;;;;;;3.29;2.34;;;;;;;;;;357100;148;859373;-57
2022/05/25 05:17:15;;;;;;;3.32;2.39;;;;;;;;;;357456;148;863672;-59
2022/05/25 05:18:17;;;;;;;4.14;2.39;;;;;;;;;;356861;148;858010;-58
2022/05/25 05:19:19;;;;;;;4.12;2.44;;;;;;;;;;356588;148;857417;-58
2022/05/25 05:20:20;;;;;;;5.28;2.64;;;;;;;;;;355554;149;857756;-58
2022/05/25 05:21:22;;;;;;;4.41;2.46;;;;;;;;;;350480;150;864394;-59
2022/05/25 05:22:24;;;;;;;5.24;2.34;;;;;;;;;;350373;151;857766;-58
2022/05/25 05:23:25;;;;;;;4.69;2.24;;;;;;;;;;354275;149;856789;-58
2022/05/25 05:24:27;;;;;;;6.64;2.29;;;;;;;;;;355096;150;863770;-58
2022/05/25 05:25:29;;;;;;;7.17;2.55;;;;;;;;;;355201;149;856320;-57
2022/05/25 05:26:32;;;;;;;5.82;2.99;;;;;;;;;;356408;149;856293;-58
2022/05/25 05:27:34;;;;;;;4.58;2.39;;;;;;;;;;356876;149;856861;-58
2022/05/25 05:28:36;;;;;;;3.93;2.53;;;;;;;;;;356445;149;863696;-58
2022/05/25 05:29:38;;;;;;;8.87;2.64;;;;;;;;;;355637;149;856248;-58
2022/05/25 05:30:40;;;;;;;3.99;2.32;;;;;;;;;;356340;150;856264;-58
2022/05/25 05:31:41;;;;;;;4.81;2.39;;;;;;;;;;357219;149;856221;-59
2022/05/25 05:32:43;;;;;;;5.38;2.30;;;;;;;;;;354648;149;856226;-58
2022/05/25 05:33:44;;;;;;;3.26;2.31;;;;;;;;;;357123;150;857565;-60
2022/05/25 05:34:46;;;;;;;4.84;2.56;;;;;;;;;;355430;149;856309;-58
2022/05/25 05:35:48;;;;;;;3.33;2.50;;;;;;;;;;356902;150;856524;-58
2022/05/25 05:36:51;;;;;;;3.72;2.58;;;;;;;;;;355465;149;856994;-58
2022/05/25 05:37:53;;;;;;;4.20;2.35;;;;;;;;;;357115;149;856170;-58
2022/05/25 05:38:59;;;;;;;5.53;2.51;;;;;;;;;;355735;149;863708;-58
2022/05/25 05:40:01;;;;;;;5.33;2.47;;;;;;;;;;356439;149;858678;-58
2022/05/25 05:41:02;;;;;;;7.18;2.86;;;;;;;;;;356539;149;857460;-57
2022/05/25 05:42:06;;;;;;;6.75;2.96;;;;;;;;;;353819;149;865258;-58
2022/05/25 05:43:07;;;;;;;7.09;3.17;;;;;;;;;;350944;150;857776;-56
2022/05/25 05:44:10;;;;;;;8.73;3.62;;;;;;;;;;347749;150;859062;-57
2022/05/25 05:45:16;;;;;;;5.73;3.30;;;;;;;;;;347948;151;867006;-57
2022/05/25 05:46:18;;;;;;;6.46;3.60;;;;;;;;;;349123;151;858333;-58
2022/05/25 05:47:21;;;;;;;9.16;3.76;;;;;;;;;;356934;150;857285;-58
2022/05/25 05:48:26;;;;;;;5.72;3.31;;;;;;;;;;349982;152;865727;-58
2022/05/25 05:49:28;;;;;;;6.01;3.45;;;;;;;;;;349250;152;857293;-58
2022/05/25 05:50:30;;;;;;;9.58;3.84;;;;;;;;;;348319;151;859273;-58
2022/05/25 05:51:31;;;;;;;6.66;3.25;;;;;;;;;;345311;153;857426;-57
2022/05/25 05:52:33;;;;;;;8.69;3.08;;;;;;;;;;356737;148;857263;-59
2022/05/25 05:53:35;;;;;;;5.09;2.81;;;;;;;;;;351478;150;859053;-58
2022/05/25 05:54:36;;;;;;;6.67;3.84;;;;;;;;;;350944;150;866411;-59
2022/05/25 05:55:39;;;;;;;6.07;3.01;;;;;;;;;;349619;150;864784;-59
2022/05/25 05:56:41;;;;;;;4.78;3.02;;;;;;;;;;351475;151;866589;-59
2022/05/25 05:57:42;;;;;;;5.26;3.06;;;;;;;;;;350308;151;864797;-58
2022/05/25 05:58:44;;;;;;;4.54;3.09;;;;;;;;;;353089;149;858909;-58
2022/05/25 05:59:45;;;;;;;6.19;3.10;;;;;;;;;;353822;149;857460;-58
2022/05/25 06:00:47;;;;;;;6.36;3.29;;;;;;;;;;353341;149;859161;-58
2022/05/25 06:01:49;;;;;;;5.84;3.21;;;;;;;;;;349508;151;865417;-58
2022/05/25 06:02:50;;;;;;;8.77;3.01;;;;;;;;;;349268;152;866550;-58
2022/05/25 06:03:52;;;;;;;8.10;3.96;;;;;;;;;;349233;150;857286;-58
2022/05/25 06:04:53;;;;;;;5.21;3.06;;;;;;;;;;351400;150;857522;-57
2022/05/25 06:05:55;;;;;;;4.50;2.73;;;;;;;;;;357423;148;857247;-58
2022/05/25 06:06:57;;;;;;;6.45;2.79;;;;;;;;;;357875;148;857388;-56
2022/05/25 06:08:07;;;;;;;4.81;2.72;;;;;;;;;;350791;151;858789;-60
2022/05/25 06:09:08;;;;;;;7.38;2.96;;;;;;;;;;356917;149;859005;-57
2022/05/25 06:10:11;;;;;;;11.85;2.95;;;;;;;;;;356504;148;865011;-57
2022/05/25 06:11:16;;;;;;;5.02;2.89;;;;;;;;;;350896;152;859844;-57
2022/05/25 06:12:18;;;;;;;4.96;2.73;;;;;;;;;;356542;149;857344;-57
2022/05/25 06:13:19;;;;;;;11.56;3.03;;;;;;;;;;357329;149;858639;-58
2022/05/25 06:14:21;;;;;;;5.39;3.04;;;;;;;;;;357125;148;866561;-58
2022/05/25 06:19:25;;;;;;;10.72;3.12;;;;;;;;;;356146;148;857321;-58
2022/05/25 06:20:27;;;;;;;6.43;2.82;;;;;;;;;;356882;148;858276;-58
2022/05/25 06:21:29;;;;;;;3.78;2.81;;;;;;;;;;356740;148;857756;-58
2022/05/25 06:22:32;;;;;;;10.22;2.71;;;;;;;;;;355751;148;866327;-58
2022/05/25 06:23:34;;;;;;;6.17;2.67;;;;;;;;;;356156;148;859759;-58
2022/05/25 06:24:37;;;;;;;6.72;2.54;;;;;;;;;;356754;148;856258;-58
2022/05/25 06:25:39;;;;;;;5.45;2.63;;;;;;;;;;355823;148;863862;-57
2022/05/25 06:26:42;;;;;;;5.95;2.87;;;;;;;;;;356572;148;857303;-58
2022/05/25 06:27:44;;;;;;;3.97;2.46;;;;;;;;;;356282;148;864990;-58
2022/05/25 06:28:46;;;;;;;5.35;2.56;;;;;;;;;;356892;148;859018;-58
2022/05/25 06:29:48;;;;;;;4.36;2.15;;;;;;;;;;356030;148;859112;-57
2022/05/25 06:30:49;;;;;;;6.55;2.74;;;;;;;;;;355771;148;859149;-58
2022/05/25 06:31:51;;;;;;;5.01;2.47;;;;;;;;;;356684;148;864854;-58
2022/05/25 06:32:53;;;;;;;5.31;2.88;;;;;;;;;;356825;148;857248;-58
2022/05/25 06:33:54;;;;;;;4.71;2.57;;;;;;;;;;356800;148;858866;-57
2022/05/25 06:34:56;;;;;;;3.34;2.56;;;;;;;;;;356666;148;859492;-59
2022/05/25 06:36:01;;;;;;;7.11;2.49;;;;;;;;;;356466;148;859489;-59
2022/05/25 06:37:05;;;;;;;3.61;2.21;;;;;;;;;;347828;150;857551;-57
2022/05/25 06:38:07;;;;;;;5.66;2.44;;;;;;;;;;350940;150;857355;-57
2022/05/25 06:39:08;;;;;;;3.26;2.18;;;;;;;;;;357010;148;857298;-58
2022/05/25 06:40:10;;;;;;;4.65;2.41;;;;;;;;;;357330;148;859235;-57
2022/05/25 06:41:13;;;;;;;5.45;2.09;;;;;;;;;;356799;148;858916;-59
2022/05/25 06:42:14;;;;;;;3.59;2.17;;;;;;;;;;357530;148;857986;-58
2022/05/25 06:43:16;;;;;;;3.76;2.12;;;;;;;;;;355743;148;858569;-58
2022/05/25 06:44:18;;;;;;;2.87;2.10;;;;;;;;;;356797;148;864684;-58
2022/05/25 06:45:19;;;;;;;4.80;2.18;;;;;;;;;;356073;148;857329;-59
2022/05/25 06:46:21;;;;;;;6.13;1.98;;;;;;;;;;357245;148;864751;-58
2022/05/25 06:47:27;;;;;;;6.83;1.97;;;;;;;;;;355303;148;864715;-58
2022/05/25 06:48:29;;;;;;;4.31;1.91;;;;;;;;;;356018;148;857281;-58
2022/05/25 06:49:30;;;;;;;5.90;2.15;;;;;;;;;;357597;148;858296;-60
2022/05/25 06:50:32;;;;;;;3.17;1.71;;;;;;;;;;356045;148;859223;-58
2022/05/25 06:51:34;;;;;;;4.54;2.19;;;;;;;;;;355750;148;866348;-58
2022/05/25 06:52:36;;;;;;;4.08;2.01;;;;;;;;;;355925;148;858898;-58
2022/05/25 06:53:37;;;;;;;5.91;2.38;;;;;;;;;;356774;148;859016;-58
2022/05/25 06:54:39;;;;;;;2.39;1.85;;;;;;;;;;355455;148;866855;-58
2022/05/25 06:55:41;;;;;;;4.69;2.03;;;;;;;;;;352735;149;858835;-58
2022/05/25 06:56:42;;;;;;;3.15;1.89;;;;;;;;;;357890;148;858460;-58
2022/05/25 06:57:44;;;;;;;5.00;1.81;;;;;;;;;;351810;150;857400;-58
2022/05/25 06:58:46;;;;;;;5.39;1.92;;;;;;;;;;351818;149;856601;-55
2022/05/25 06:59:48;;;;;;;4.33;2.11;;;;;;;;;;353110;149;857314;-57
2022/05/25 07:00:49;;;;;;;4.34;2.14;;;;;;;;;;351654;149;858595;-58
2022/05/25 07:01:51;;;;;;;3.73;2.03;;;;;;;;;;352283;149;857395;-62
2022/05/25 07:02:53;;;;;;;4.00;2.09;;;;;;;;;;351524;149;864783;-63
2022/05/25 07:03:55;;;;;;;4.11;1.75;;;;;;;;;;355190;148;857174;-62
2022/05/25 07:04:56;;;;;;;5.31;2.09;;;;;;;;;;356218;149;857261;-62
2022/05/25 07:06:00;;;;;;;6.26;1.89;;;;;;;;;;357311;148;857476;-63
2022/05/25 07:07:02;;;;;;;2.94;1.96;;;;;;;;;;350565;151;864928;-67
2022/05/25 07:08:04;;;;;;;4.74;1.83;;;;;;;;;;350005;152;856895;-59
2022/05/25 07:09:06;;;;;;;3.44;2.14;;;;;;;;;;357228;148;860692;-60
2022/05/25 07:10:08;;;;;;;4.43;1.98;;;;;;;;;;358074;148;857723;-57
2022/05/25 07:11:11;;;;;;;3.01;1.93;;;;;;;;;;349796;152;861017;-59
2022/05/25 07:12:12;;;;;;;5.25;1.85;;;;;;;;;;349377;152;858059;-59
2022/05/25 07:13:15;;;;;;;1.88;1.14;;;;;;;;;;357355;149;860171;-58
2022/05/25 07:14:16;;;;;;;1.93;1.23;;;;;;;;;;356898;148;857757;-57
2022/05/25 07:15:18;;;;;;;1.76;1.22;;;;;;;;;;357002;148;859146;-58
2022/05/25 07:16:19;;;;;;;2.41;1.40;;;;;;;;;;350605;152;858088;-58
2022/05/25 07:17:21;;;;;;;2.44;1.21;;;;;;;;;;349300;152;857254;-59
2022/05/25 07:18:22;;;;;;;1.96;1.36;;;;;;;;;;356380;148;866637;-59
2022/05/25 07:19:24;;;;;;;3.13;1.43;;;;;;;;;;354202;148;857273;-58
2022/05/25 07:20:25;;;;;;;5.00;1.59;;;;;;;;;;357595;148;858990;-59
2022/05/25 07:21:28;;;;;;;3.01;1.59;;;;;;;;;;354794;148;859038;-58
2022/05/25 07:22:29;;;;;;;2.41;1.37;;;;;;;;;;357523;148;858531;-58
2022/05/25 07:23:31;;;;;;;4.24;1.32;;;;;;;;;;356939;148;857325;-59
2022/05/25 07:24:33;;;;;;;3.60;1.45;;;;;;;;;;355425;148;857288;-59
2022/05/25 07:25:34;;;;;;;4.45;1.54;;;;;;;;;;356598;148;857208;-59
2022/05/25 07:26:36;;;;;;;2.50;1.50;;;;;;;;;;357228;148;857173;-59
2022/05/25 07:27:39;;;;;;;6.69;1.44;;;;;;;;;;357848;148;864775;-59
2022/05/25 07:28:41;;;;;;;1.87;1.33;;;;;;;;;;351862;150;857407;-58
2022/05/25 07:29:43;;;;;;;3.33;1.46;;;;;;;;;;355956;148;857941;-58
2022/05/25 07:30:45;;;;;;;2.91;1.87;;;;;;;;;;348856;151;857306;-60
2022/05/25 07:31:49;;;;;;;4.49;1.63;;;;;;;;;;352099;150;864627;-57
2022/05/25 07:32:50;;;;;;;3.02;1.47;;;;;;;;;;351108;150;857317;-59
2022/05/25 07:33:53;;;;;;;6.32;1.44;;;;;;;;;;352249;150;857410;-59
2022/05/25 07:34:57;;;;;;;4.55;1.41;;;;;;;;;;355576;148;857378;-59
2022/05/25 07:35:59;;;;;;;3.49;1.64;;;;;;;;;;349864;151;858749;-59
2022/05/25 07:37:02;;;;;;;2.58;1.43;;;;;;;;;;354531;148;857307;-59
2022/05/25 07:38:04;;;;;;;4.21;1.22;;;;;;;;;;355845;148;867933;-59
2022/05/25 07:39:08;;;;;;;1.91;1.06;;;;;;;;;;350233;151;859083;-59
2022/05/25 07:40:12;;;;;;;2.81;1.06;;;;;;;;;;353770;150;857066;-57
2022/05/25 07:41:14;;;;;;;1.98;1.12;;;;;;;;;;354543;150;859069;-58
2022/05/25 07:42:15;;;;;;;1.45;1.19;;;;;;;;;;354933;149;857401;-58
2022/05/25 07:43:18;;;;;;;5.02;1.25;;;;;;;;;;349728;151;864896;-58
2022/05/25 07:44:21;;;;;;;1.35;0.99;;;;;;;;;;355558;150;857693;-57
2022/05/25 07:45:23;;;;;;;1.68;1.18;;;;;;;;;;354628;151;857323;-58
2022/05/25 07:46:28;;;;;;;4.11;1.29;;;;;;;;;;354476;149;858247;-58
2022/05/25 07:47:30;;;;;;;2.44;1.05;;;;;;;;;;353919;150;864632;-58
2022/05/25 07:48:31;;;;;;;2.42;1.10;;;;;;;;;;352876;150;857314;-65
2022/05/25 07:49:33;;;;;;;1.45;1.31;;;;;;;;;;354102;151;858668;-59
2022/05/25 07:50:35;;;;;;;2.02;1.14;;;;;;;;;;354558;149;857276;-58
2022/05/25 07:51:36;;;;;;;3.52;1.30;;;;;;;;;;353776;150;864819;-59
2022/05/25 07:52:38;;;;;;;4.53;1.36;;;;;;;;;;352719;149;864328;-58
2022/05/25 07:53:58;;;;;;;3.55;1.28;;;;;;;;;;354952;151;857470;-58
2022/05/25 07:54:59;;;;;;;1.79;1.04;;;;;;;;;;346573;152;859064;-58
2022/05/25 07:56:03;;;;;;;1.38;1.20;;;;;;;;;;341884;155;857174;-57
2022/05/25 07:57:04;;;;;;;2.81;1.14;;;;;;;;;;338430;146;864964;-58
2022/05/25 07:58:06;;;;;;;3.27;1.26;;;;;;;;;;338627;156;858355;-58
2022/05/25 07:59:08;;;;;;;1.44;1.11;;;;;;;;;;339183;156;857489;-58
2022/05/25 08:00:11;;;;;;;2.23;1.18;;;;;;;;;;338561;156;864996;-58
2022/05/25 08:01:14;;;;;;;1.42;1.18;;;;;;;;;;340563;156;857444;-57
2022/05/25 08:06:20;;;;;;;5.22;1.50;;;;;;;;;;337714;157;857276;-58
2022/05/25 08:07:22;;;;;;;2.21;1.29;;;;;;;;;;337433;156;857368;-59
2022/05/25 08:08:24;;;;;;;2.08;1.43;;;;;;;;;;338012;156;859123;-58
2022/05/25 08:09:26;;;;;;;3.71;1.46;;;;;;;;;;337735;156;857530;-58
2022/05/25 08:10:27;;;;;;;2.95;1.46;;;;;;;;;;339374;157;859500;-59
2022/05/25 08:11:30;;;;;;;2.06;1.28;;;;;;;;;;334966;158;864895;-59
2022/05/25 08:12:32;;;;;;;3.19;1.34;;;;;;;;;;339657;157;857429;-58
2022/05/25 08:13:37;;;;;;;2.67;1.43;;;;;;;;;;332359;158;858477;-59
2022/05/25 08:14:38;;;;;;;2.12;1.37;;;;;;;;;;333043;158;864929;-60
2022/05/25 08:15:43;;;;;;;2.83;1.47;;;;;;;;;;336836;158;857384;-60
2022/05/25 08:16:43;;;;;;;1.47;1.09;;;;;;;;;;336929;156;857346;-59
2022/05/25 08:17:45;;;;;;;4.12;1.56;;;;;;;;;;338994;158;865499;-59
2022/05/25 08:18:47;;;;;;;1.99;1.45;;;;;;;;;;338231;156;857408;-60
2022/05/25 08:19:48;;;;;;;2.79;1.36;;;;;;;;;;335182;156;857798;-58
2022/05/25 08:20:50;;;;;;;4.35;1.58;;;;;;;;;;336480;156;857368;-60
2022/05/25 08:21:53;;;;;;;2.56;1.24;;;;;;;;;;337618;156;865207;-59
2022/05/25 08:22:54;;;;;;;4.14;1.36;;;;;;;;;;337882;156;857350;-58
2022/05/25 08:23:56;;;;;;;3.79;1.33;;;;;;;;;;339431;157;863562;-58
2022/05/25 08:24:58;;;;;;;2.41;1.46;;;;;;;;;;338269;157;857367;-58
2022/05/25 08:25:59;;;;;;;4.55;1.36;;;;;;;;;;335599;156;864900;-59
2022/05/25 08:27:01;;;;;;;1.86;1.18;;;;;;;;;;338009;156;856254;-58
2022/05/25 08:28:03;;;;;;;2.13;1.13;;;;;;;;;;338370;156;863744;-65
2022/05/25 08:29:04;;;;;;;1.53;1.15;;;;;;;;;;338891;156;856321;-66
2022/05/25 08:30:07;;;;;;;2.84;1.21;;;;;;;;;;338677;156;856418;-65
2022/05/25 08:31:09;;;;;;;2.27;1.15;;;;;;;;;;339211;156;864586;-64
2022/05/25 08:32:10;;;;;;;2.66;1.21;;;;;;;;;;337631;156;857570;-64
2022/05/25 08:33:14;;;;;;;2.37;1.24;;;;;;;;;;336951;156;858882;-66
2022/05/25 08:34:15;;;;;;;1.59;1.18;;;;;;;;;;338166;158;865828;-65
2022/05/25 08:35:17;;;;;;;4.26;1.32;;;;;;;;;;335938;158;857754;-64
2022/05/25 08:36:18;;;;;;;1.53;1.25;;;;;;;;;;337892;156;859363;-64
2022/05/25 08:37:20;;;;;;;4.44;1.29;;;;;;;;;;337258;156;857911;-62
2022/05/25 08:38:22;;;;;;;1.84;1.30;;;;;;;;;;338238;156;856454;-61
2022/05/25 08:39:24;;;;;;;2.21;1.35;;;;;;;;;;341216;156;856335;-64
2022/05/25 08:40:26;;;;;;;2.09;1.47;;;;;;;;;;338573;156;856453;-60
2022/05/25 08:41:29;;;;;;;6.65;1.44;;;;;;;;;;336063;156;856687;-60
2022/05/25 08:42:31;;;;;;;1.69;1.26;;;;;;;;;;337634;156;863469;-62
2022/05/25 08:43:37;;;;;;;4.18;1.30;;;;;;;;;;337773;156;859120;-62
2022/05/25 08:44:41;;;;;;;2.74;1.10;;;;;;;;;;338424;156;863296;-60
2022/05/25 08:45:43;;;;;;;3.38;1.25;;;;;;;;;;337016;156;856282;-64
2022/05/25 08:46:45;;;;;;;4.53;1.49;;;;;;;;;;339292;156;857455;-64
2022/05/25 08:47:47;;;;;;;2.36;1.37;;;;;;;;;;337026;156;866512;-62
2022/05/25 08:48:50;;;;;;;1.85;1.16;;;;;;;;;;337370;156;859368;-65
2022/05/25 08:49:51;;;;;;;3.96;1.70;;;;;;;;;;336938;156;865835;-63
2022/05/25 08:50:54;;;;;;;1.59;1.17;;;;;;;;;;338882;156;856420;-59
2022/05/25 08:51:56;;;;;;;1.52;1.21;;;;;;;;;;339064;156;856498;-59
2022/05/25 08:52:58;;;;;;;2.74;1.23;;;;;;;;;;338423;156;856894;-59
2022/05/25 08:54:00;;;;;;;2.79;1.19;;;;;;;;;;338734;156;856615;-59
2022/05/25 08:55:02;;;;;;;2.53;1.27;;;;;;;;;;339401;156;859011;-59
2022/05/25 08:56:23;;;;;;;3.43;1.13;;;;;;;;;;338515;158;860106;-60
2022/05/25 08:57:26;;;;;;;1.82;1.11;;;;;;;;;;337049;156;857758;-59
2022/05/25 08:58:36;;;;;;;2.31;1.09;;;;;;;;;;349919;151;857811;-59
2022/05/25 08:59:39;;;;;;;3.29;1.26;;;;;;;;;;351543;151;857266;-62
2022/05/25 09:00:41;;;;;;;1.89;1.14;;;;;;;;;;346653;151;857235;-61
2022/05/25 09:01:44;;;;;;;3.61;1.56;;;;;;;;;;348032;152;857353;-63
2022/05/25 09:02:52;;;;;;;1.83;1.21;;;;;;;;;;346947;154;857694;-61
2022/05/25 09:03:55;;;;;;;3.39;1.23;;;;;;;;;;346529;151;859043;-63
2022/05/25 09:05:02;;;;;;;3.02;1.26;;;;;;;;;;348283;151;857306;-62
2022/05/25 09:06:18;;;;;;;2.03;1.21;;;;;;;;;;348259;151;865705;-64
2022/05/25 09:07:38;;;;;;;3.33;1.22;;;;;;;;;;343395;154;857806;-62
2022/05/25 09:08:48;;;;;;;2.09;1.24;;;;;;;;;;346057;155;857235;-63